Edmonton / Cooking Lake Airport

CEZ3 · 艾伯塔, 加拿大

使用的METAR站距离机场18 NM。
罗盘
风向 的 风向 140° Edmonton / Cooking Lake Airport 10/28
风: 8 kt, 3 beaufort

8 kt

3 kt
改变
0 ft 2.000 4.000 6.000 8.000 10.000
Cloud Cloud Cloud Cloud Cloud Cloud
BKN 5.400
METAR CYEG 192300Z 14008KT 15SM BKN054 29/18 A3008 RMK FU6 SLP186 DENSITY ALT 4300FT

METAR Edmonton / Cooking Lake Airport - CEZ3

Edmonton / Cooking Lake Airport是,加拿大中的小机场。 该机场位于纬度53,42757和经度-113,11576。 该机场有一条跑道: 10/28. 该机场的伪ICAO代码为CEZ3。 机场在Edmonton FIR中。

该航空气象观测是针对Edmonton International Airport在2024年7月19日 17:00, 当地时间进行的。

机场观察

风向为140°,速度为8 kt。

可见度为15 mi。

有碎云在5.400 ft的高度。 破损或更高的上限为5.400 ft。

温度和风寒是29 °C。 热指数为29。 露点为18 °C,相对湿度为51%。 海平面上的气压为30,08 inHg (QNH)。

白天

今天,太阳从05:29升起,在21:47降落。 这适用于Edmonton / Cooking Lake Airport,世界夏令时可能有所不同。 当地时间与世界标准时间之间的时差为-6 小时。 夏令时目前正在进行中。

公司介绍

我们没有关于这个机场的公司信息。

体会

到Vliegles.nl去找飞行课程,跳伞和其他飞行体验。 浏览页面,了解Edmonton / Cooking Lake Airport附近所有可用的活动。 你也可以使用搜索功能来寻找你所在地附近的特定飞行课程、跳伞或其他飞行体验。

跑道

Id 标题 侧风 逆风 侧风 %
10/28 120°-300° 3 kt 8 kt 34 %

逆风成分最大的方向会被突出显示,并用于横风计算。 这并不一定意味着这个方向在使用。

乌云

5.400 ft BKN 碎云

温度 & 天气

温度 29 °C
露点 18 °C
相对湿度 51%
热度指数 29 °C
Kp-index 1 (0-9)

评论

SLP186海平面压力为30,08 inHg (30,08 inHg)
FU6 DENSITY ALT 4300FT

白天

日出
05:32
中午
13:40
日落
21:49 (4:22)

小工具

你想在你的网站上有一个关于Edmonton / Cooking Lake Airport的当前航空天气(METAR)的小部件吗?

显示HTML代码
报告变更